全部
Husum Schwesing Airport QHU 天气
There is no TAF data available at QHU or any nearby airports.
There is no METAR data available at QHU. Showing METAR data for ETNS (16 mi E).
WBG近期METAR历史数据(QHU无数据)
| Date | Time (CEST) | Flight Rules | Wind Dir. | Speed | Type | Height AGL (ft) | Visibility | Temp (°C) | Temp (°F) | Dew Point (°C) | Dew Point (°F) | Rel. Humid. | Pressure | Density Altitude | Remarks |
|---|---|---|---|---|---|---|---|---|---|---|---|---|---|---|---|
| 03-五月 | 23:20 | n/a | 200° | 5 kt | Missing | 14° | 57° | 14° | 57° | 100% | 1008 mb | 104 ft | |||
| 03-五月 | 22:20 | n/a | 200° | 4 kt | Missing | 13° | 55° | 13° | 55° | 100% | 1008 mb | -16 ft | |||
| 03-五月 | 21:20 | n/a | 70° | 3 kt | Missing | 13° | 55° | 13° | 55° | 100% | 1008 mb | -16 ft | |||
| 03-五月 | 20:20 | n/a | 350° | 10 kt | Missing | 13° | 55° | 13° | 55° | 100% | 1007 mb | 13 ft | |||
| 03-五月 | 19:20 | n/a | 70° | 6 kt | Missing | 14° | 57° | 13° | 55° | 94% | 1007 mb | 133 ft | |||
| 03-五月 | 18:20 | n/a | 50° | 10 kt | Missing | 16° | 60° | 12° | 53° | 77% | 1007 mb | 373 ft | |||
| 03-五月 | 17:20 | n/a | 50° | 10 kt | Missing | 18° | 64° | 12° | 53° | 68% | 1008 mb | 584 ft | |||
| 03-五月 | 16:20 | n/a | 90° | 8 kt | Missing | 19° | 66° | 12° | 53° | 64% | 1009 mb | 674 ft | |||
| 03-五月 | 15:20 | n/a | 60° | 7 kt | Missing | 19° | 66° | 13° | 55° | 68% | 1009 mb | 674 ft | |||
| 03-五月 | 14:20 | n/a | 60° | 6 kt | Missing | 19° | 66° | 13° | 55° | 68% | 1010 mb | 645 ft | |||
| 03-五月 | 13:20 | n/a | 120° | 5 kt | Missing | 19° | 66° | 12° | 53° | 64% | 1010 mb | 645 ft | |||
| 03-五月 | 12:20 | n/a | 10° | 5 kt | Missing | 17° | 62° | 12° | 53° | 72% | 1011 mb | 375 ft | |||
| 03-五月 | 11:20 | n/a | 30° | 5 kt | Missing | 15° | 59° | 12° | 53° | 82% | 1011 mb | 135 ft | |||
| 03-五月 | 10:20 | n/a | 70° | 6 kt | Missing | 13° | 55° | 13° | 55° | 100% | 1012 mb | -134 ft | |||
| 03-五月 | 09:20 | n/a | 50° | 1 kt | Missing | 11° | 51° | 11° | 51° | 100% | 1012 mb | -374 ft | |||
| 03-五月 | 08:20 | n/a | 80° | 1 kt | Missing | 10° | 50° | 10° | 50° | 100% | 1012 mb | -494 ft | |||
| 03-五月 | 07:20 | n/a | Variable | 1 kt | Missing | 9° | 48° | 9° | 48° | 100% | 1012 mb | -614 ft | |||
| 03-五月 | 06:20 | n/a | 290° | 1 kt | Missing | 9° | 48° | 9° | 48° | 100% | 1012 mb | -614 ft | |||
| 03-五月 | 05:20 | n/a | Variable | 1 kt | Missing | 9° | 48° | 9° | 48° | 100% | 1012 mb | -614 ft | |||
| 03-五月 | 04:20 | n/a | 20° | 2 kt | Missing | 8° | 46° | 8° | 46° | 100% | 1012 mb | -734 ft | |||
| 03-五月 | 03:20 | n/a | 230° | 5 kt | Missing | 10° | 50° | 10° | 50° | 100% | 1013 mb | -524 ft | |||
| 03-五月 | 02:20 | n/a | 240° | 4 kt | Missing | 11° | 51° | 11° | 51° | 100% | 1013 mb | -404 ft | |||
| 03-五月 | 01:20 | n/a | 230° | 4 kt | Missing | 10° | 50° | 10° | 50° | 100% | 1013 mb | -524 ft | |||
| 03-五月 | 00:20 | n/a | 240° | 2 kt | Missing | 12° | 53° | 12° | 53° | 100% | 1013 mb | -284 ft |
登录
| 您的浏览器不支持. 升级您的浏览器 |
